Aérodrome :
LOGIN :

S'inscrire | Disclaimer

   EN    FR    IT 

 










Légende :    VFR   VFR Marginal   IFR   IFR Intensif   IFR Très Intensif
Visi : 
Plafond : 
>= 8 km
>= 3000ft
5 à 8 km
1000 à 3000 ft
1500m à 5 km
500 à 1000 ft
800 à 1500m
200 à 500 ft
< 800m
< 200 ft
Symboles :   Orages  Brouillard  Fortes neiges  Fortes précipitations  Vent > 20 kt
SIGMETs :   Divers  Orages  Givrage  Turbulence  Onde Orograph.  Cendres Volcan.







- Altitude de l'aérodrome : 2297 ft


LEGA - Armilla

DERNIER METAR :
  • 191700Z VRB03KT 9999 OVC072 17/07 Q1013

METARs EXPIRÉS :
  • 191600Z VRB02KT CAVOK 16/07 Q1013
  • 191400Z 21008KT 9999 FEW055 OVC086 16/08 Q1012

TAF TAF LEGA
Valide du 19 à 15h jusqu'au 20 à 00h UTC


191400Z 1915/1924 18008KT 9999 SCT040
PROB30
TEMPO 1915/1918 SCT030CB
Pas de NOTAMs connus pour ce terrain.
3 SIGMETs publiés pour la FIR Madrid (LECM) :
 
Turbulence forte
LECM SIGMET 8 VALID 191700/191900 LEVA
LECM MADRID UIR SEV TURB FCST WI N3720 W00727 - N3930 W00438 - N3842 W00339 - N3548 W00718 - N3720 W00727 FL270/350 MOV NE NC=
Turbulence forte
LECM SIGMET 7 VALID 191300/191700 LEVA
LECM MADRID FIR/UIR SEV TURB OBS AT 1257Z WI N3551 W00648 - N3941 W00117 - N3757 W00151 - N3551 W00459 - N3551 W00648 FL200/340 MOV ENE WKN=
Annulation du SIGMET 18
LECM SIGMET 1 VALID 190150/192200 LEVA
LECM MADRID UIR CNL SIGMET 18 VALID 182039/192200=



MET'MAP, la Météo Aéronautique d'un coup d'oeil ! - Copyright ORBIFLY Décembre 2007 - Disclaimer

ORBIFLY MET'MAP TEAM :

Programmation & Développement : Alexandra Zaïnal
Conception & Développement : Baudouin d'Aumeries
Co-Programmation & Développement : Marc-Olivier Méhu
Soutien technique & logistique : Manuel Goepfert

Contact : metmap@orbifly.com




SOURCES & CREDITS :

   NOAA